Time;durP1;ratioP1;P1;durP2;ratioP2;P2;SDS_P1;SDS_P2;PMS_P1;PMS_P2;Temp;Humidity;BMP_temperature;BMP_pressure;BME280_temperature;BME280_humidity;BME280_pressure;Samples;Min_cycle;Max_cycle;Signal;HPM_P1;HPM_P2
2023/09/10 00:01:10;;;;;;;39.72;33.70;;;19.30;99.90;;;;;;5036297;28;20080;-70
2023/09/10 00:03:36;;;;;;;42.95;34.25;;;19.20;99.90;;;;;;5035661;28;20068;-70
2023/09/10 00:06:05;;;;;;;44.42;34.25;;;19.20;99.90;;;;;;5034649;28;20037;-70
2023/09/10 00:08:31;;;;;;;43.42;34.55;;;19.20;99.90;;;;;;5034383;28;20045;-70
2023/09/10 00:10:56;;;;;;;49.30;36.33;;;19.20;99.90;;;;;;5034633;28;20037;-70
2023/09/10 00:13:23;;;;;;;43.53;32.45;;;19.20;99.90;;;;;;5034280;28;20412;-70
2023/09/10 00:15:48;;;;;;;41.22;33.97;;;19.20;99.90;;;;;;5034374;28;20114;-70
2023/09/10 00:18:14;;;;;;;44.85;35.05;;;19.10;99.90;;;;;;5034311;28;20524;-71
2023/09/10 00:20:40;;;;;;;49.95;34.95;;;19.10;99.90;;;;;;5034513;28;20061;-70
2023/09/10 00:23:06;;;;;;;40.72;32.55;;;19.10;99.90;;;;;;5034362;28;20400;-70
2023/09/10 00:25:31;;;;;;;33.85;27.45;;;19.00;99.90;;;;;;5033878;28;20095;-70
2023/09/10 00:27:57;;;;;;;30.15;25.48;;;19.10;99.90;;;;;;5034129;28;20047;-71
2023/09/10 00:30:23;;;;;;;31.63;27.10;;;19.00;99.90;;;;;;5034028;28;20570;-70
2023/09/10 00:32:49;;;;;;;42.53;32.22;;;19.00;99.90;;;;;;5034079;28;20128;-70
2023/09/10 00:35:15;;;;;;;37.97;30.80;;;19.00;99.90;;;;;;5034046;28;20116;-70
2023/09/10 00:37:40;;;;;;;38.75;29.50;;;19.00;99.90;;;;;;5033884;28;20492;-70
2023/09/10 00:40:08;;;;;;;36.30;30.02;;;18.90;99.90;;;;;;5033766;28;20034;-71
2023/09/10 00:42:34;;;;;;;37.38;28.02;;;19.00;99.90;;;;;;5033950;28;20037;-70
2023/09/10 00:44:59;;;;;;;33.63;28.33;;;18.90;99.90;;;;;;5033782;28;20041;-70
2023/09/10 00:47:26;;;;;;;33.72;28.48;;;18.90;99.90;;;;;;5033887;28;20038;-70
2023/09/10 00:49:52;;;;;;;35.33;29.05;;;18.90;99.90;;;;;;5033520;28;20037;-71
2023/09/10 00:52:21;;;;;;;28.77;24.85;;;18.80;99.90;;;;;;5033586;28;20500;-70
2023/09/10 00:54:47;;;;;;;27.58;21.90;;;18.80;99.90;;;;;;5033467;28;20057;-70
2023/09/10 00:57:13;;;;;;;23.65;21.13;;;18.70;99.90;;;;;;5033466;28;20037;-71
2023/09/10 00:59:40;;;;;;;30.80;25.27;;;18.70;99.90;;;;;;5033267;28;20037;-70
2023/09/10 01:02:06;;;;;;;31.30;24.60;;;18.70;99.90;;;;;;5033600;28;20619;-70
2023/09/10 01:04:31;;;;;;;28.90;24.00;;;18.70;99.90;;;;;;5033587;28;20113;-70
2023/09/10 01:06:57;;;;;;;25.73;21.75;;;18.60;99.90;;;;;;5033494;28;20056;-70
2023/09/10 01:09:22;;;;;;;31.27;25.48;;;18.50;99.90;;;;;;5033135;28;20045;-70
2023/09/10 01:12:03;;;;;;;28.83;24.58;;;18.50;99.90;;;;;;5015438;28;20060;-70
2023/09/10 01:14:35;;;;;;;31.38;24.88;;;18.40;99.90;;;;;;5033271;28;20033;-71
2023/09/10 01:17:52;;;;;;;29.33;23.60;;;18.50;99.90;;;;;;5033392;28;20087;-71
2023/09/10 01:20:47;;;;;;;23.25;20.73;;;18.50;99.90;;;;;;4999332;28;20049;-70
2023/09/10 01:23:47;;;;;;;25.70;21.75;;;18.40;99.90;;;;;;5015539;28;20377;-71
2023/09/10 01:26:12;;;;;;;23.50;20.30;;;18.40;99.90;;;;;;5033116;28;20037;-71
2023/09/10 01:28:38;;;;;;;23.08;20.63;;;18.40;99.90;;;;;;5032973;28;20045;-71
2023/09/10 01:31:03;;;;;;;23.63;21.10;;;18.40;99.90;;;;;;5033257;28;20037;-71
2023/09/10 01:33:36;;;;;;;25.40;22.23;;;18.40;99.90;;;;;;5033072;28;20040;-71
2023/09/10 01:36:27;;;;;;;30.43;24.90;;;18.40;99.90;;;;;;5032339;28;20065;-71
2023/09/10 01:39:14;;;;;;;26.58;22.63;;;18.40;99.90;;;;;;5014703;28;20068;-71
2023/09/10 01:41:43;;;;;;;28.40;23.65;;;18.40;99.90;;;;;;5032985;28;20037;-71
2023/09/10 01:44:09;;;;;;;33.03;28.45;;;18.40;99.90;;;;;;5032515;28;20048;-71
2023/09/10 01:46:36;;;;;;;39.10;31.92;;;18.30;99.90;;;;;;5032712;28;20033;-70
2023/09/10 01:49:02;;;;;;;43.22;35.63;;;18.40;99.90;;;;;;5032192;28;20037;-71
2023/09/10 01:51:28;;;;;;;41.60;33.10;;;18.30;99.90;;;;;;5032418;28;20053;-71
2023/09/10 01:53:53;;;;;;;38.45;31.67;;;18.30;99.90;;;;;;5032527;28;20504;-71
2023/09/10 01:56:20;;;;;;;29.60;25.60;;;18.30;99.90;;;;;;5032123;28;20116;-71
2023/09/10 01:58:46;;;;;;;24.95;22.33;;;18.20;99.90;;;;;;5045581;28;20037;-71
2023/09/10 02:01:11;;;;;;;27.40;24.52;;;18.10;99.90;;;;;;5051037;28;20067;-71
2023/09/10 02:03:37;;;;;;;25.63;22.55;;;18.20;99.90;;;;;;5051628;28;20048;-71
2023/09/10 02:06:03;;;;;;;23.90;21.27;;;18.10;99.90;;;;;;5051828;28;20060;-71
2023/09/10 02:08:29;;;;;;;27.00;23.30;;;18.10;99.90;;;;;;5051537;28;20041;-71
2023/09/10 02:10:55;;;;;;;33.67;28.10;;;18.10;99.90;;;;;;5052370;28;20041;-71
2023/09/10 02:13:21;;;;;;;31.88;28.40;;;18.10;99.90;;;;;;5051967;28;20044;-71
2023/09/10 02:15:46;;;;;;;30.73;26.63;;;18.10;99.90;;;;;;5052003;28;20041;-71
2023/09/10 02:18:12;;;;;;;29.23;26.17;;;18.10;99.90;;;;;;5051499;28;20140;-71
2023/09/10 02:20:38;;;;;;;31.10;26.48;;;18.10;99.90;;;;;;5051822;28;20037;-71
2023/09/10 02:23:04;;;;;;;28.23;24.65;;;18.00;99.90;;;;;;5052187;28;20043;-71
2023/09/10 02:25:32;;;;;;;28.45;24.58;;;18.00;99.90;;;;;;5051519;28;20033;-71
2023/09/10 02:27:58;;;;;;;25.17;21.60;;;17.90;99.90;;;;;;5051796;28;20081;-71
2023/09/10 02:30:24;;;;;;;22.23;20.08;;;17.90;99.90;;;;;;5051763;28;20128;-71
2023/09/10 02:32:50;;;;;;;23.02;20.73;;;17.90;99.90;;;;;;5051777;28;20120;-71
2023/09/10 02:35:16;;;;;;;22.80;20.50;;;17.90;99.90;;;;;;5051328;28;20532;-71
2023/09/10 02:37:41;;;;;;;23.40;20.90;;;17.90;99.90;;;;;;5051780;28;20040;-71
2023/09/10 02:40:08;;;;;;;24.15;21.58;;;17.90;99.90;;;;;;5051413;28;20033;-71
2023/09/10 02:42:33;;;;;;;25.15;22.48;;;17.90;99.90;;;;;;5051652;28;20438;-71
2023/09/10 02:44:59;;;;;;;28.25;25.15;;;17.90;99.90;;;;;;5051413;28;20033;-71
2023/09/10 02:47:25;;;;;;;31.58;25.92;;;17.90;99.90;;;;;;5050622;28;20078;-71
2023/09/10 02:49:50;;;;;;;26.08;23.27;;;17.80;99.90;;;;;;5049906;28;20060;-71
2023/09/10 02:52:16;;;;;;;26.15;23.40;;;17.90;99.90;;;;;;5051564;28;20045;-71
2023/09/10 02:54:41;;;;;;;26.00;23.30;;;17.90;99.90;;;;;;5050306;28;20037;-71
2023/09/10 02:57:07;;;;;;;28.27;25.38;;;17.80;99.90;;;;;;5051565;28;20039;-71
2023/09/10 02:59:33;;;;;;;25.77;23.15;;;17.80;99.90;;;;;;5051017;28;20496;-71
2023/09/10 03:01:58;;;;;;;23.25;20.55;;;17.70;99.90;;;;;;5051289;28;20076;-71
2023/09/10 03:04:24;;;;;;;21.90;19.63;;;17.60;99.90;;;;;;5049900;28;20381;-70
2023/09/10 03:06:50;;;;;;;22.98;19.88;;;17.60;99.90;;;;;;5050578;28;20472;-70
2023/09/10 03:09:17;;;;;;;19.00;17.20;;;17.60;99.90;;;;;;5050994;28;20408;-70
2023/09/10 03:11:43;;;;;;;18.95;17.27;;;17.50;99.90;;;;;;5051204;28;20374;-70
2023/09/10 03:14:09;;;;;;;18.08;16.40;;;17.50;99.90;;;;;;5051155;28;20037;-70
2023/09/10 03:16:38;;;;;;;19.88;18.00;;;17.40;99.90;;;;;;5050229;28;20041;-70
2023/09/10 03:19:04;;;;;;;19.80;18.00;;;17.50;99.90;;;;;;5049367;28;20041;-70
2023/09/10 03:21:30;;;;;;;21.55;19.55;;;17.40;99.90;;;;;;5050297;28;20082;-71
2023/09/10 03:23:56;;;;;;;23.10;20.90;;;17.40;99.90;;;;;;5049669;28;20045;-70
2023/09/10 03:26:22;;;;;;;21.55;19.25;;;17.40;99.90;;;;;;5051318;28;20033;-71
2023/09/10 03:28:48;;;;;;;21.23;19.13;;;17.50;99.90;;;;;;5050897;28;20037;-70
2023/09/10 03:31:13;;;;;;;22.25;20.02;;;17.40;99.90;;;;;;5051089;28;20037;-70
2023/09/10 03:33:39;;;;;;;28.35;23.13;;;17.40;99.90;;;;;;5050829;28;20052;-70
2023/09/10 03:36:05;;;;;;;24.98;22.35;;;17.40;99.90;;;;;;5051196;28;20124;-71
2023/09/10 03:38:31;;;;;;;25.75;23.00;;;17.40;99.90;;;;;;5050812;28;20381;-71
2023/09/10 03:40:57;;;;;;;28.52;25.42;;;17.50;99.90;;;;;;5051052;28;20044;-71
2023/09/10 03:43:23;;;;;;;28.17;25.20;;;17.40;99.90;;;;;;5051029;28;20033;-71
2023/09/10 03:45:48;;;;;;;28.17;25.17;;;17.40;99.90;;;;;;5050871;28;20048;-71
2023/09/10 03:48:14;;;;;;;28.00;25.10;;;17.40;99.90;;;;;;5050779;28;20040;-71
2023/09/10 03:50:40;;;;;;;23.38;20.98;;;17.50;99.90;;;;;;5051127;28;20508;-71
2023/09/10 03:53:05;;;;;;;25.63;23.02;;;17.40;99.90;;;;;;5050868;28;20041;-70
2023/09/10 03:55:31;;;;;;;27.05;24.27;;;17.40;99.90;;;;;;5050788;28;20094;-71
2023/09/10 03:57:56;;;;;;;28.85;25.85;;;17.40;99.90;;;;;;5050568;28;20052;-71
2023/09/10 04:00:22;;;;;;;27.65;24.65;;;17.40;99.90;;;;;;5053627;28;20120;-71
2023/09/10 04:02:48;;;;;;;26.45;23.75;;;17.40;99.90;;;;;;5054491;28;20045;-71
2023/09/10 04:05:13;;;;;;;28.88;25.88;;;17.40;99.90;;;;;;5053038;28;20072;-71
2023/09/10 04:07:39;;;;;;;37.35;31.33;;;17.40;99.90;;;;;;5054490;28;20587;-71
2023/09/10 04:10:07;;;;;;;36.70;30.60;;;17.40;99.90;;;;;;5054115;28;20043;-71
2023/09/10 04:12:32;;;;;;;41.92;33.88;;;17.30;99.90;;;;;;5054334;28;20089;-71
2023/09/10 04:14:58;;;;;;;40.22;31.60;;;17.30;99.90;;;;;;5054049;28;20513;-71
2023/09/10 04:17:28;;;;;;;30.45;26.63;;;17.30;99.90;;;;;;5054372;28;20037;-71
2023/09/10 04:19:54;;;;;;;27.83;24.98;;;17.30;99.90;;;;;;5054644;28;20040;-71
2023/09/10 04:22:20;;;;;;;27.55;24.65;;;17.30;99.90;;;;;;5054280;28;20112;-71
2023/09/10 04:24:45;;;;;;;30.20;27.02;;;17.30;99.90;;;;;;5053834;28;20202;-71
2023/09/10 04:27:11;;;;;;;30.50;27.30;;;17.30;99.90;;;;;;5052805;28;20049;-71
2023/09/10 04:29:36;;;;;;;32.72;28.13;;;17.30;99.90;;;;;;5053706;28;20037;-72
2023/09/10 04:32:02;;;;;;;30.95;26.60;;;17.30;99.90;;;;;;5054002;28;20495;-71
2023/09/10 04:34:27;;;;;;;29.73;26.48;;;17.30;99.90;;;;;;5053829;28;20637;-71
2023/09/10 04:36:53;;;;;;;29.73;25.60;;;17.30;99.90;;;;;;5053993;28;20037;-71
2023/09/10 04:39:19;;;;;;;29.55;25.65;;;17.20;99.90;;;;;;5053649;28;20032;-71
2023/09/10 04:41:45;;;;;;;39.45;32.03;;;17.20;99.90;;;;;;5053979;28;20159;-71
2023/09/10 04:44:10;;;;;;;39.67;32.05;;;17.20;99.90;;;;;;5053631;28;20527;-71
2023/09/10 04:46:36;;;;;;;37.45;31.33;;;17.30;99.90;;;;;;5053786;28;20084;-71
2023/09/10 04:49:02;;;;;;;33.95;28.15;;;17.20;99.90;;;;;;5053441;28;20048;-71
2023/09/10 04:51:28;;;;;;;40.92;33.83;;;17.20;99.90;;;;;;5053897;28;20037;-71
2023/09/10 04:53:54;;;;;;;40.40;32.67;;;17.30;99.90;;;;;;5053319;28;20040;-71
2023/09/10 04:56:20;;;;;;;42.85;34.97;;;17.30;99.90;;;;;;5053395;28;20442;-71
2023/09/10 04:58:45;;;;;;;36.60;30.42;;;17.30;99.90;;;;;;5052816;28;20029;-71
2023/09/10 05:01:11;;;;;;;35.38;30.33;;;17.30;99.90;;;;;;5053020;28;20488;-71
2023/09/10 05:03:37;;;;;;;34.35;29.33;;;17.30;99.90;;;;;;5051771;28;20080;-71
2023/09/10 05:06:05;;;;;;;33.13;28.20;;;17.30;99.90;;;;;;5052109;28;20059;-71
2023/09/10 05:08:31;;;;;;;35.78;30.58;;;17.30;99.90;;;;;;5052975;28;20045;-71
2023/09/10 05:10:56;;;;;;;41.78;31.38;;;17.30;99.90;;;;;;5052270;28;20060;-71
2023/09/10 05:13:22;;;;;;;43.47;34.20;;;17.30;99.90;;;;;;5052125;28;20431;-71
2023/09/10 05:15:48;;;;;;;43.15;34.75;;;17.30;99.90;;;;;;5051873;28;20075;-71
2023/09/10 05:18:14;;;;;;;45.15;36.90;;;17.30;99.90;;;;;;5052979;28;20091;-71
2023/09/10 05:20:40;;;;;;;45.15;36.20;;;17.40;99.90;;;;;;5052186;28;20377;-72
2023/09/10 05:23:05;;;;;;;46.63;35.20;;;17.40;99.90;;;;;;5053156;28;20039;-71
2023/09/10 05:25:35;;;;;;;42.08;34.65;;;17.40;99.90;;;;;;5052695;28;20037;-71
2023/09/10 05:28:00;;;;;;;42.78;34.25;;;17.40;99.90;;;;;;5051482;28;20063;-71
2023/09/10 05:30:26;;;;;;;42.67;35.35;;;17.50;99.90;;;;;;5052909;28;20040;-71
2023/09/10 05:32:51;;;;;;;46.20;37.05;;;17.50;99.90;;;;;;5053019;28;20041;-71
2023/09/10 05:35:17;;;;;;;52.50;41.13;;;17.50;99.90;;;;;;5052742;28;20120;-71
2023/09/10 05:37:42;;;;;;;46.20;35.88;;;17.60;99.90;;;;;;5051467;28;20076;-71
2023/09/10 05:40:08;;;;;;;41.33;34.42;;;17.60;99.90;;;;;;5052473;28;20041;-71
2023/09/10 05:42:34;;;;;;;33.13;29.50;;;17.60;99.90;;;;;;5052464;28;20040;-71
2023/09/10 05:44:59;;;;;;;45.65;38.30;;;17.60;99.90;;;;;;5034505;28;20041;-71
2023/09/10 05:47:25;;;;;;;53.42;42.38;;;17.70;99.90;;;;;;5052673;28;20402;-71
2023/09/10 05:49:51;;;;;;;55.95;42.45;;;17.70;99.90;;;;;;5051154;28;20424;-71
2023/09/10 05:52:17;;;;;;;52.08;42.58;;;17.80;99.90;;;;;;5052512;28;20126;-70
2023/09/10 05:54:43;;;;;;;45.08;35.42;;;17.90;99.90;;;;;;5052209;28;20703;-70
2023/09/10 05:57:08;;;;;;;46.10;37.47;;;17.90;99.90;;;;;;5052025;28;20059;-70
2023/09/10 05:59:34;;;;;;;54.65;44.17;;;18.00;99.90;;;;;;5051729;28;20108;-70
2023/09/10 06:02:00;;;;;;;62.28;46.88;;;18.00;99.90;;;;;;5052304;28;20029;-70
2023/09/10 06:04:27;;;;;;;56.95;45.20;;;18.10;99.90;;;;;;5050789;28;20033;-69
2023/09/10 06:06:53;;;;;;;62.75;47.45;;;18.30;99.90;;;;;;5052306;28;20041;-70
2023/09/10 06:09:18;;;;;;;63.72;48.30;;;18.30;99.90;;;;;;5051575;28;20500;-70
2023/09/10 06:11:44;;;;;;;57.40;46.17;;;18.40;99.90;;;;;;5051935;28;20032;-71
2023/09/10 06:14:09;;;;;;;58.55;45.97;;;18.50;99.90;;;;;;5051934;28;20423;-70
2023/09/10 06:16:35;;;;;;;63.85;48.28;;;18.70;99.90;;;;;;5052022;28;20033;-70
2023/09/10 06:19:00;;;;;;;66.28;50.05;;;18.80;99.90;;;;;;5051287;28;20385;-70
2023/09/10 06:21:26;;;;;;;66.68;48.85;;;18.90;99.90;;;;;;5051777;28;20500;-70
2023/09/10 06:23:52;;;;;;;69.53;50.78;;;19.10;99.90;;;;;;5051619;28;20446;-70
2023/09/10 06:26:17;;;;;;;66.30;47.53;;;19.20;99.90;;;;;;5051855;28;20059;-70
2023/09/10 06:28:43;;;;;;;64.28;49.85;;;19.40;99.90;;;;;;5051818;28;20037;-70
2023/09/10 06:31:09;;;;;;;66.18;50.35;;;19.50;99.90;;;;;;5050460;28;20077;-70
2023/09/10 06:33:35;;;;;;;65.55;47.10;;;19.60;99.90;;;;;;5051885;28;20045;-70
2023/09/10 06:36:01;;;;;;;61.53;47.03;;;19.70;99.90;;;;;;5051779;28;20114;-70
2023/09/10 06:38:30;;;;;;;63.58;46.80;;;19.90;99.90;;;;;;5051259;28;20059;-70
2023/09/10 06:40:56;;;;;;;60.25;47.15;;;20.00;99.90;;;;;;5051577;28;20047;-70
2023/09/10 06:43:21;;;;;;;63.50;46.22;;;20.20;99.90;;;;;;5051641;28;20455;-71
2023/09/10 06:45:47;;;;;;;62.70;47.45;;;20.30;99.90;;;;;;5051405;28;20037;-70
2023/09/10 06:48:13;;;;;;;59.97;43.58;;;20.40;99.90;;;;;;5051393;28;20033;-71
2023/09/10 06:50:38;;;;;;;60.50;46.17;;;20.50;99.90;;;;;;5051680;28;20131;-69
2023/09/10 06:53:04;;;;;;;61.58;46.42;;;20.70;99.90;;;;;;5050326;28;20049;-69
2023/09/10 06:55:29;;;;;;;60.67;45.10;;;20.80;99.90;;;;;;5051262;28;20045;-70
2023/09/10 06:57:55;;;;;;;56.33;42.42;;;20.90;99.90;;;;;;5051189;28;20071;-70
2023/09/10 07:00:21;;;;;;;51.50;39.08;;;21.00;99.90;;;;;;5047448;28;20025;-70
2023/09/10 07:02:47;;;;;;;52.25;39.95;;;21.10;99.90;;;;;;5042297;28;20041;-70
2023/09/10 07:05:13;;;;;;;47.85;37.63;;;21.20;99.90;;;;;;5039085;28;20499;-70
2023/09/10 07:07:38;;;;;;;47.33;35.45;;;21.30;99.90;;;;;;5040775;28;20497;-69
2023/09/10 07:10:05;;;;;;;46.63;36.67;;;21.50;99.90;;;;;;5040047;28;20115;-70
2023/09/10 07:12:31;;;;;;;43.88;34.88;;;21.70;99.90;;;;;;5031703;28;20073;-71
2023/09/10 07:14:57;;;;;;;43.83;34.90;;;21.90;99.90;;;;;;5031607;28;20045;-70
2023/09/10 07:17:23;;;;;;;42.55;35.45;;;22.10;99.90;;;;;;5013556;28;20052;-71
2023/09/10 07:19:48;;;;;;;42.08;33.45;;;22.20;99.90;;;;;;5013417;28;20044;-72
2023/09/10 07:22:14;;;;;;;41.03;33.35;;;22.40;99.90;;;;;;4997586;28;20045;-72
2023/09/10 07:24:40;;;;;;;44.33;34.45;;;22.60;99.90;;;;;;5031017;28;20057;-70
2023/09/10 07:27:05;;;;;;;38.83;32.67;;;22.70;99.90;;;;;;5031550;28;20041;-70
2023/09/10 07:29:31;;;;;;;41.13;32.58;;;22.80;99.90;;;;;;5031300;28;20034;-71
2023/09/10 07:31:56;;;;;;;37.83;31.98;;;23.00;99.90;;;;;;5031493;28;20106;-71
2023/09/10 07:34:22;;;;;;;44.00;35.90;;;23.10;99.90;;;;;;5032624;28;20137;-71
2023/09/10 07:36:48;;;;;;;42.78;33.75;;;23.10;99.90;;;;;;5035310;28;20040;-71
2023/09/10 07:39:14;;;;;;;43.47;33.13;;;23.30;99.90;;;;;;5034557;28;20034;-71
2023/09/10 07:41:39;;;;;;;43.53;34.30;;;23.20;99.90;;;;;;5034879;28;20496;-71
2023/09/10 07:44:05;;;;;;;42.58;35.40;;;23.30;99.90;;;;;;5034939;28;20037;-71
2023/09/10 07:46:33;;;;;;;46.25;34.20;;;23.40;99.90;;;;;;5035008;28;20496;-71
2023/09/10 07:48:59;;;;;;;41.80;34.78;;;23.60;99.90;;;;;;5034853;28;20435;-71
2023/09/10 07:51:24;;;;;;;44.42;34.45;;;23.60;99.90;;;;;;5034963;28;20044;-71
2023/09/10 07:53:50;;;;;;;43.05;34.47;;;23.70;99.90;;;;;;5034585;28;20539;-72
2023/09/10 07:56:15;;;;;;;44.53;34.88;;;23.80;99.90;;;;;;5039710;28;20037;-71
2023/09/10 07:58:41;;;;;;;40.33;32.78;;;23.80;99.90;;;;;;5047276;28;20451;-69
2023/09/10 08:01:06;;;;;;;37.90;32.63;;;24.00;99.90;;;;;;5048604;28;20048;-71
2023/09/10 08:03:34;;;;;;;37.47;31.73;;;24.10;99.90;;;;;;5054536;28;20116;-72
2023/09/10 08:06:00;;;;;;;39.17;31.00;;;24.50;99.90;;;;;;5034930;28;20041;-72
2023/09/10 08:08:25;;;;;;;38.15;31.65;;;24.80;99.90;;;;;;5054117;28;20039;-72
2023/09/10 08:10:51;;;;;;;32.22;28.75;;;25.00;99.90;;;;;;5054462;28;20037;-71
2023/09/10 08:13:17;;;;;;;36.67;30.75;;;25.30;99.90;;;;;;5054440;28;20554;-71
2023/09/10 08:15:43;;;;;;;34.08;30.08;;;25.40;99.90;;;;;;5054341;28;20037;-70
2023/09/10 08:18:11;;;;;;;32.47;28.75;;;25.30;99.90;;;;;;5035884;28;20094;-71
2023/09/10 08:20:45;;;;;;;31.48;27.27;;;25.20;99.90;;;;;;5053997;28;20040;-71
2023/09/10 08:23:11;;;;;;;29.77;26.40;;;25.30;99.90;;;;;;5019574;28;20113;-72
2023/09/10 08:25:37;;;;;;;34.20;28.58;;;25.30;99.90;;;;;;5053718;28;20116;-73
2023/09/10 08:28:03;;;;;;;35.97;28.73;;;25.40;99.90;;;;;;5053643;28;20090;-72
2023/09/10 08:30:28;;;;;;;31.58;27.17;;;25.40;99.90;;;;;;5035994;28;20513;-71
2023/09/10 08:32:57;;;;;;;31.15;27.35;;;25.60;99.90;;;;;;5053994;28;20163;-72
2023/09/10 08:35:25;;;;;;;27.00;24.13;;;25.60;99.90;;;;;;5053446;28;20029;-72
2023/09/10 08:37:51;;;;;;;25.17;21.88;;;25.70;99.90;;;;;;5044655;28;20056;-71
2023/09/10 08:40:16;;;;;;;26.42;23.02;;;26.00;99.90;;;;;;5049927;28;20033;-71
2023/09/10 08:42:54;;;;;;;27.27;21.98;;;26.10;99.90;;;;;;5035911;28;20037;-71
2023/09/10 08:45:21;;;;;;;23.58;20.90;;;26.30;99.90;;;;;;5053631;28;20036;-70
2023/09/10 08:47:49;;;;;;;29.20;23.95;;;26.50;99.90;;;;;;5053786;28;20086;-71
2023/09/10 08:50:15;;;;;;;28.60;25.42;;;26.40;99.90;;;;;;5053201;28;20056;-70
2023/09/10 08:52:44;;;;;;;26.23;20.92;;;26.30;99.90;;;;;;5035835;28;20072;-71
2023/09/10 08:55:13;;;;;;;25.63;21.92;;;26.40;99.90;;;;;;5048720;28;20120;-71
2023/09/10 08:57:41;;;;;;;25.52;21.23;;;26.40;99.90;;;;;;5053511;28;20102;-70
2023/09/10 09:00:12;;;;;;;25.95;22.15;;;26.40;99.90;;;;;;5053327;28;20377;-71
2023/09/10 09:02:45;;;;;;;25.90;19.63;;;26.50;99.90;;;;;;5053258;28;20123;-71
2023/09/10 09:05:11;;;;;;;21.00;18.73;;;26.50;99.90;;;;;;5053443;28;20044;-71
2023/09/10 09:07:51;;;;;;;19.98;17.58;;;26.40;99.90;;;;;;5053496;28;20087;-70
2023/09/10 09:10:27;;;;;;;22.98;19.65;;;26.50;99.90;;;;;;5053152;28;20533;-71
2023/09/10 09:13:07;;;;;;;21.45;18.23;;;26.50;99.90;;;;;;5052989;28;20044;-71
2023/09/10 09:15:34;;;;;;;19.67;17.15;;;26.30;99.90;;;;;;5053220;28;20036;-70
2023/09/10 09:18:01;;;;;;;21.58;14.65;;;26.30;99.90;;;;;;5053195;28;20116;-71
2023/09/10 09:20:30;;;;;;;22.20;18.02;;;26.20;99.90;;;;;;5053172;28;20072;-70
2023/09/10 09:23:03;;;;;;;21.05;16.60;;;26.00;99.90;;;;;;5052967;28;20115;-70
2023/09/10 09:25:28;;;;;;;;;;;26.10;99.90;;;;;;5053233;28;20037;-70
2023/09/10 09:27:56;;;;;;;19.30;17.02;;;26.00;99.90;;;;;;5035261;28;19916;-70
2023/09/10 09:30:22;;;;;;;19.23;16.45;;;25.90;99.90;;;;;;5034796;28;20091;-70
2023/09/10 09:32:49;;;;;;;20.50;17.13;;;25.90;99.90;;;;;;5052711;28;20041;-71
2023/09/10 09:35:14;;;;;;;17.08;15.38;;;26.00;99.90;;;;;;5052819;28;20071;-71
2023/09/10 09:37:40;;;;;;;17.48;14.00;;;26.00;99.90;;;;;;5052717;28;20511;-70
2023/09/10 09:40:09;;;;;;;17.40;13.35;;;26.10;99.90;;;;;;5034315;28;20037;-70
2023/09/10 09:42:36;;;;;;;16.63;14.70;;;26.20;99.90;;;;;;5052542;28;20559;-71
2023/09/10 09:45:02;;;;;;;15.95;14.25;;;26.30;99.90;;;;;;5052576;28;20048;-70
2023/09/10 09:47:29;;;;;;;18.88;15.65;;;26.20;99.90;;;;;;5034539;28;20108;-70
2023/09/10 09:49:56;;;;;;;18.80;15.80;;;26.30;99.90;;;;;;5034439;28;20171;-71
2023/09/10 09:52:22;;;;;;;18.20;15.57;;;26.20;99.90;;;;;;5050645;28;20109;-70
2023/09/10 09:54:48;;;;;;;20.08;17.20;;;26.20;99.90;;;;;;5019980;28;20485;-70
2023/09/10 09:57:15;;;;;;;18.10;15.95;;;26.20;99.90;;;;;;5042730;28;20430;-71
2023/09/10 09:59:40;;;;;;;21.30;16.33;;;26.20;99.90;;;;;;5034094;28;20063;-70
2023/09/10 10:02:13;;;;;;;17.67;14.50;;;26.40;99.90;;;;;;5052187;28;20029;-70
2023/09/10 10:04:39;;;;;;;18.98;15.85;;;26.50;99.90;;;;;;5043161;28;20087;-70
2023/09/10 10:07:05;;;;;;;25.23;18.33;;;26.60;99.90;;;;;;5052071;28;20044;-71
2023/09/10 10:09:38;;;;;;;21.27;17.80;;;26.50;99.90;;;;;;5051518;28;20120;-70
2023/09/10 10:12:04;;;;;;;17.20;15.32;;;26.40;99.90;;;;;;5034030;28;20037;-70
2023/09/10 10:14:32;;;;;;;20.95;14.93;;;26.50;99.90;;;;;;5051580;28;20098;-71
2023/09/10 10:17:00;;;;;;;17.88;15.77;;;26.60;99.90;;;;;;5052103;28;20404;-71
2023/09/10 10:19:30;;;;;;;22.05;16.15;;;26.60;99.90;;;;;;5051487;28;20045;-71
2023/09/10 10:21:56;;;;;;;18.00;15.13;;;26.60;99.90;;;;;;5051683;28;20040;-70
2023/09/10 10:24:23;;;;;;;15.75;14.07;;;26.60;99.90;;;;;;5051618;28;20444;-71
2023/09/10 10:26:49;;;;;;;21.85;15.23;;;26.60;99.90;;;;;;5051987;28;20064;-70
2023/09/10 10:29:17;;;;;;;18.13;14.65;;;26.60;99.90;;;;;;5051602;28;20041;-71
2023/09/10 10:31:47;;;;;;;19.00;16.17;;;26.70;99.90;;;;;;5051623;28;20056;-71
2023/09/10 10:34:21;;;;;;;19.98;17.52;;;26.60;99.90;;;;;;5033688;28;20120;-70
2023/09/10 10:37:15;;;;;;;16.85;15.15;;;26.50;99.90;;;;;;5051739;28;20037;-70
2023/09/10 10:39:59;;;;;;;18.13;15.00;;;26.60;99.90;;;;;;5051253;28;20045;-71
2023/09/10 10:42:56;;;;;;;17.40;14.57;;;26.70;99.90;;;;;;5051599;28;20068;-71
2023/09/10 10:45:25;;;;;;;16.02;14.32;;;26.60;99.90;;;;;;5031500;28;20411;-70
2023/09/10 10:47:52;;;;;;;18.23;14.27;;;26.60;99.90;;;;;;5051605;28;20082;-70
2023/09/10 10:50:29;;;;;;;16.60;14.02;;;26.80;99.90;;;;;;5051178;28;20082;-70
2023/09/10 10:53:02;;;;;;;16.13;14.43;;;26.80;99.90;;;;;;5051601;28;20120;-71
2023/09/10 10:55:29;;;;;;;15.45;12.95;;;26.60;99.90;;;;;;5033888;28;20036;-71
2023/09/10 10:57:55;;;;;;;16.60;13.07;;;26.80;99.90;;;;;;5051388;28;20103;-69
2023/09/10 11:00:21;;;;;;;20.10;14.25;;;26.80;99.90;;;;;;5051243;28;20106;-71
2023/09/10 11:03:11;;;;;;;15.75;13.32;;;26.70;99.90;;;;;;5051448;28;20546;-71
2023/09/10 11:05:52;;;;;;;15.85;14.15;;;26.80;99.90;;;;;;5051219;28;20111;-71
2023/09/10 11:08:29;;;;;;;17.33;14.00;;;26.80;99.90;;;;;;5051466;28;20044;-71
2023/09/10 11:10:55;;;;;;;16.42;14.27;;;26.80;99.90;;;;;;5055972;28;20048;-70
2023/09/10 11:13:23;;;;;;;20.05;13.73;;;26.80;99.90;;;;;;5037886;28;20029;-72
2023/09/10 11:16:04;;;;;;;17.33;13.52;;;26.70;99.90;;;;;;5055532;28;20041;-72
2023/09/10 11:18:36;;;;;;;17.10;14.68;;;26.70;99.90;;;;;;5055224;28;20419;-71
2023/09/10 11:21:09;;;;;;;16.20;13.25;;;26.70;99.90;;;;;;5037604;28;20094;-71
2023/09/10 11:23:51;;;;;;;14.80;12.57;;;26.80;99.90;;;;;;5037469;28;20049;-70
2023/09/10 11:26:16;;;;;;;15.27;13.18;;;26.80;99.90;;;;;;5055222;28;20064;-69
2023/09/10 11:28:47;;;;;;;19.77;12.32;;;26.90;99.90;;;;;;5054990;28;20500;-70
2023/09/10 11:31:48;;;;;;;17.30;13.65;;;26.90;99.90;;;;;;5055318;28;20041;-71
2023/09/10 11:34:23;;;;;;;15.95;13.00;;;26.90;99.90;;;;;;5002811;28;20522;-70
2023/09/10 11:36:55;;;;;;;13.10;11.57;;;26.90;99.90;;;;;;5055095;28;20120;-70
2023/09/10 11:39:22;;;;;;;13.80;11.77;;;26.90;99.90;;;;;;5054843;28;20488;-70
2023/09/10 11:41:50;;;;;;;15.40;11.95;;;26.90;99.90;;;;;;5055329;28;20061;-70
2023/09/10 11:44:16;;;;;;;18.25;12.13;;;26.90;99.90;;;;;;5055119;28;20044;-71
2023/09/10 11:46:41;;;;;;;17.45;13.43;;;27.00;99.90;;;;;;5020753;28;20041;-71
2023/09/10 11:49:07;;;;;;;14.35;12.35;;;26.90;99.90;;;;;;5054614;28;20044;-71
2023/09/10 11:51:46;;;;;;;16.60;12.07;;;26.90;99.90;;;;;;5054807;28;20178;-70
2023/09/10 11:54:18;;;;;;;14.55;12.25;;;27.00;99.90;;;;;;5020707;28;20037;-71
2023/09/10 11:56:52;;;;;;;14.02;12.52;;;27.00;99.90;;;;;;5036939;28;20058;-70
2023/09/10 11:59:23;;;;;;;17.27;12.70;;;27.00;99.90;;;;;;5036606;28;20041;-70
2023/09/10 12:01:48;;;;;;;16.50;13.05;;;27.00;99.90;;;;;;5054691;28;20045;-70
2023/09/10 12:04:16;;;;;;;18.80;13.20;;;26.90;99.90;;;;;;5054583;28;20040;-71
2023/09/10 12:06:42;;;;;;;17.58;12.48;;;27.00;99.90;;;;;;5036729;28;20403;-70
2023/09/10 12:09:08;;;;;;;18.45;12.13;;;26.90;99.90;;;;;;5036423;28;20048;-70
2023/09/10 12:11:36;;;;;;;15.82;11.05;;;26.90;99.90;;;;;;5036679;28;20048;-71
2023/09/10 12:14:02;;;;;;;17.05;12.00;;;27.10;99.90;;;;;;5054497;28;20166;-70
2023/09/10 12:16:28;;;;;;;19.42;11.63;;;26.90;99.90;;;;;;5054479;28;20130;-71
2023/09/10 12:18:54;;;;;;;14.65;11.57;;;26.90;99.90;;;;;;5054373;28;20048;-71
2023/09/10 12:21:20;;;;;;;12.73;9.52;;;26.90;99.90;;;;;;5036026;28;20037;-71
2023/09/10 12:23:46;;;;;;;15.02;9.93;;;26.90;99.90;;;;;;5054445;28;20064;-70
2023/09/10 12:26:13;;;;;;;13.40;9.95;;;26.80;99.90;;;;;;5054498;28;20033;-71
2023/09/10 12:28:38;;;;;;;11.18;8.88;;;26.90;99.90;;;;;;5036157;28;20561;-70
2023/09/10 12:31:05;;;;;;;18.80;10.30;;;26.90;99.90;;;;;;5054212;28;20045;-70